createdAt,value
2023-05-04T00:02:21.038Z,3.90
2023-05-04T00:04:48.169Z,3.90
2023-05-04T00:07:15.149Z,3.80
2023-05-04T00:09:42.123Z,3.80
2023-05-04T00:12:09.032Z,3.80
2023-05-04T00:14:37.187Z,3.90
2023-05-04T00:17:06.661Z,3.80
2023-05-04T00:19:34.732Z,3.90
2023-05-04T00:22:01.812Z,3.80
2023-05-04T00:24:29.151Z,3.70
2023-05-04T00:26:56.052Z,3.70
2023-05-04T00:29:23.073Z,3.80
2023-05-04T00:31:50.150Z,3.80
2023-05-04T00:34:17.087Z,3.80
2023-05-04T00:36:44.053Z,3.70
2023-05-04T00:39:11.016Z,3.60
2023-05-04T00:41:37.882Z,3.70
2023-05-04T00:44:07.067Z,3.60
2023-05-04T00:46:34.232Z,3.60
2023-05-04T00:49:02.333Z,3.60
2023-05-04T00:51:30.881Z,3.70
2023-05-04T00:53:59.050Z,3.60
2023-05-04T00:56:26.491Z,3.60
2023-05-04T00:58:54.682Z,3.60
2023-05-04T01:01:22.646Z,3.50
2023-05-04T01:03:52.080Z,3.50
2023-05-04T01:06:41.766Z,3.50
2023-05-04T01:09:10.753Z,3.50
2023-05-04T01:11:44.146Z,3.40
2023-05-04T01:14:14.486Z,3.30
2023-05-04T01:16:41.455Z,3.40
2023-05-04T01:19:08.471Z,3.40
2023-05-04T01:21:36.879Z,3.50
2023-05-04T01:24:03.977Z,3.40
2023-05-04T01:26:36.956Z,3.40
2023-05-04T01:29:31.971Z,3.30
2023-05-04T01:32:02.399Z,3.20
2023-05-04T01:34:29.641Z,3.30
2023-05-04T01:36:57.083Z,3.20
2023-05-04T01:39:24.932Z,3.10
2023-05-04T01:41:51.755Z,3.10
2023-05-04T01:44:18.688Z,3.10
2023-05-04T01:46:45.921Z,3.10
2023-05-04T01:49:12.973Z,3.30
2023-05-04T01:51:39.864Z,3.20
2023-05-04T01:54:06.932Z,3.20
2023-05-04T01:56:34.076Z,3.20
2023-05-04T01:59:00.951Z,3.20
2023-05-04T02:01:27.808Z,3.20
2023-05-04T02:03:54.943Z,3.20
2023-05-04T02:06:21.892Z,3.20
2023-05-04T02:08:48.867Z,3.10
2023-05-04T02:11:16.347Z,3.00
2023-05-04T02:13:43.379Z,3.00
2023-05-04T02:16:10.265Z,3.10
2023-05-04T02:18:37.317Z,3.10
2023-05-04T02:21:04.285Z,3.00
2023-05-04T02:23:31.202Z,3.00
2023-05-04T02:25:58.116Z,2.90
2023-05-04T02:28:25.041Z,2.90
2023-05-04T02:30:51.919Z,2.90
2023-05-04T02:33:18.914Z,2.90
2023-05-04T02:35:45.904Z,2.90
2023-05-04T02:38:12.752Z,3.00
2023-05-04T02:40:39.770Z,2.90
2023-05-04T02:43:06.695Z,2.90
2023-05-04T02:45:34.700Z,2.80
2023-05-04T02:48:01.793Z,2.80
2023-05-04T02:50:28.713Z,2.90
2023-05-04T02:52:55.596Z,2.90
2023-05-04T02:55:22.500Z,2.90
2023-05-04T02:57:49.339Z,2.90
2023-05-04T03:00:16.597Z,2.80
2023-05-04T03:02:43.543Z,2.90
2023-05-04T03:05:10.553Z,2.90
2023-05-04T03:07:37.475Z,2.90
2023-05-04T03:10:05.042Z,2.80
2023-05-04T03:12:32.204Z,2.70
2023-05-04T03:14:59.246Z,2.70
2023-05-04T03:17:26.137Z,2.70
2023-05-04T03:19:53.048Z,2.70
2023-05-04T03:22:19.891Z,2.60
2023-05-04T03:24:46.725Z,2.70
2023-05-04T03:27:13.587Z,2.60
2023-05-04T03:29:40.501Z,2.60
2023-05-04T03:32:07.563Z,2.50
2023-05-04T03:34:34.573Z,2.60
2023-05-04T03:37:01.478Z,2.50
2023-05-04T03:39:28.447Z,2.60
2023-05-04T03:41:55.383Z,2.60
2023-05-04T03:44:22.360Z,2.60
2023-05-04T03:46:49.389Z,2.70
2023-05-04T03:49:16.290Z,2.70
2023-05-04T03:51:43.678Z,2.80
2023-05-04T03:54:10.604Z,2.90
2023-05-04T03:56:37.515Z,2.90
2023-05-04T03:59:04.583Z,2.80
2023-05-04T04:01:31.674Z,2.90
2023-05-04T04:03:58.756Z,3.00
2023-05-04T04:06:25.885Z,3.00
2023-05-04T04:08:52.743Z,3.10
2023-05-04T04:11:19.664Z,3.20
2023-05-04T04:13:46.522Z,3.30
2023-05-04T04:16:13.445Z,3.30
2023-05-04T04:18:40.525Z,3.40
2023-05-04T04:21:07.487Z,3.50
2023-05-04T04:23:34.359Z,3.70
2023-05-04T04:26:01.621Z,3.70
2023-05-04T04:28:28.796Z,3.80
2023-05-04T04:30:56.099Z,3.90
2023-05-04T04:33:23.057Z,3.90
2023-05-04T04:35:50.030Z,4.00
2023-05-04T04:38:17.207Z,4.00
2023-05-04T04:40:44.085Z,4.10
2023-05-04T04:43:12.571Z,4.20
2023-05-04T04:45:41.242Z,4.20
2023-05-04T04:48:08.102Z,4.30
2023-05-04T04:50:38.760Z,4.40
2023-05-04T04:53:05.714Z,4.50
2023-05-04T04:55:32.616Z,4.50
2023-05-04T04:57:59.452Z,4.70
2023-05-04T05:00:26.562Z,4.70
2023-05-04T05:02:54.275Z,4.70
2023-05-04T05:05:21.353Z,4.70
2023-05-04T05:07:48.365Z,4.80
2023-05-04T05:10:15.486Z,4.80
2023-05-04T05:12:42.463Z,4.80
2023-05-04T05:15:09.775Z,4.90
2023-05-04T05:17:37.781Z,5.00
2023-05-04T05:20:15.534Z,5.10
2023-05-04T05:22:43.051Z,5.20
2023-05-04T05:25:10.791Z,5.30
2023-05-04T05:27:37.806Z,5.50
2023-05-04T05:30:06.316Z,5.70
2023-05-04T05:32:33.804Z,5.70
2023-05-04T05:35:01.120Z,5.80
2023-05-04T05:37:28.085Z,5.80
2023-05-04T05:39:54.947Z,6.00
2023-05-04T05:42:21.845Z,6.10
2023-05-04T05:44:48.747Z,6.20
2023-05-04T05:47:15.934Z,6.30
2023-05-04T05:49:44.788Z,6.50
2023-05-04T05:52:13.150Z,6.90
2023-05-04T05:54:40.015Z,7.60
2023-05-04T05:57:06.899Z,8.20
2023-05-04T05:59:33.872Z,9.00
2023-05-04T06:02:00.865Z,9.80
2023-05-04T06:04:27.676Z,10.60
2023-05-04T06:06:54.573Z,11.10
2023-05-04T06:09:21.519Z,11.80
2023-05-04T06:11:48.417Z,12.30
2023-05-04T06:14:15.229Z,12.80
2023-05-04T06:16:42.156Z,13.50
2023-05-04T06:19:09.154Z,14.00
2023-05-04T06:21:36.152Z,14.40
2023-05-04T06:24:03.502Z,14.70
2023-05-04T06:26:30.402Z,15.20
2023-05-04T06:28:57.263Z,15.50
2023-05-04T06:31:24.326Z,15.40
2023-05-04T06:33:51.471Z,15.80
2023-05-04T06:36:18.429Z,16.20
2023-05-04T06:38:45.379Z,16.10
2023-05-04T06:43:42.135Z,16.00
2023-05-04T06:46:09.222Z,16.00
2023-05-04T06:48:36.148Z,16.10
2023-05-04T06:51:03.221Z,16.30
2023-05-04T06:53:30.162Z,16.50
2023-05-04T06:55:57.231Z,16.90
2023-05-04T06:58:24.088Z,17.10
2023-05-04T07:00:52.003Z,17.00
2023-05-04T07:03:19.003Z,17.50
2023-05-04T07:05:48.533Z,17.70
2023-05-04T07:08:15.422Z,17.80
2023-05-04T07:10:42.367Z,17.60
2023-05-04T07:13:09.662Z,17.80
2023-05-04T07:15:36.889Z,18.00
2023-05-04T07:18:03.987Z,17.80
2023-05-04T07:20:30.885Z,18.10
2023-05-04T07:22:57.862Z,18.30
2023-05-04T07:25:28.128Z,18.20
2023-05-04T07:27:55.094Z,18.10
2023-05-04T07:30:22.256Z,18.40
2023-05-04T07:32:49.168Z,18.60
2023-05-04T07:35:16.351Z,18.70
2023-05-04T07:37:43.184Z,19.00
2023-05-04T07:40:10.885Z,19.30
2023-05-04T07:42:38.523Z,19.40
2023-05-04T07:45:06.473Z,19.00
2023-05-04T07:47:33.345Z,19.50
2023-05-04T07:50:00.240Z,19.50
2023-05-04T07:52:27.518Z,19.80
2023-05-04T07:54:54.908Z,19.70
2023-05-04T07:57:22.113Z,19.20
2023-05-04T07:59:48.966Z,19.00
2023-05-04T08:02:15.928Z,19.10
2023-05-04T08:04:42.838Z,19.40
2023-05-04T08:07:09.781Z,20.00
2023-05-04T08:09:36.650Z,19.70
2023-05-04T08:12:04.413Z,19.20
2023-05-04T08:14:31.347Z,18.70
2023-05-04T08:16:58.235Z,18.70
2023-05-04T08:19:25.132Z,18.70
2023-05-04T08:21:53.039Z,18.00
2023-05-04T08:24:19.983Z,17.70
2023-05-04T08:26:55.658Z,17.50
2023-05-04T08:29:31.861Z,17.40
2023-05-04T08:31:59.505Z,17.00
2023-05-04T08:34:27.405Z,16.90
2023-05-04T08:36:54.326Z,17.20
2023-05-04T08:39:21.185Z,16.90
2023-05-04T08:41:48.222Z,16.60
2023-05-04T08:44:17.330Z,16.80
2023-05-04T08:46:52.302Z,16.80
2023-05-04T08:49:24.058Z,17.00
2023-05-04T08:51:51.618Z,17.40
2023-05-04T08:54:20.015Z,17.60
2023-05-04T08:56:48.396Z,18.10
2023-05-04T08:59:23.418Z,18.10
2023-05-04T09:01:54.623Z,17.90
2023-05-04T09:04:22.768Z,18.20
2023-05-04T09:06:50.049Z,18.00
2023-05-04T09:09:17.148Z,17.40
2023-05-04T09:11:44.327Z,17.30
2023-05-04T09:14:11.449Z,16.50
2023-05-04T09:16:39.018Z,16.80
2023-05-04T09:19:20.406Z,17.70
2023-05-04T09:21:48.381Z,18.60
2023-05-04T09:24:26.732Z,18.30
2023-05-04T09:26:53.666Z,17.80
2023-05-04T09:29:22.134Z,17.70
2023-05-04T09:31:50.924Z,18.10
2023-05-04T09:34:20.540Z,18.60
2023-05-04T09:37:02.350Z,18.80
2023-05-04T09:39:30.066Z,18.70
2023-05-04T09:41:57.078Z,18.40
2023-05-04T09:44:28.219Z,18.50
2023-05-04T09:46:59.713Z,18.00
2023-05-04T09:49:33.932Z,17.70
2023-05-04T09:52:02.921Z,17.50
2023-05-04T09:54:41.501Z,17.30
2023-05-04T09:57:15.760Z,17.50
2023-05-04T09:59:42.832Z,17.20
2023-05-04T10:02:21.671Z,16.80
2023-05-04T10:04:51.637Z,16.50
2023-05-04T10:07:19.193Z,16.30
2023-05-04T10:09:48.606Z,16.40
2023-05-04T10:12:15.458Z,16.60
2023-05-04T10:14:46.740Z,16.80
2023-05-04T10:17:55.285Z,16.80
2023-05-04T10:20:46.553Z,17.10
2023-05-04T10:23:44.579Z,17.10
2023-05-04T10:26:17.170Z,17.20
2023-05-04T10:29:11.588Z,17.30
2023-05-04T10:31:40.395Z,17.10
2023-05-04T10:34:08.340Z,17.30
2023-05-04T10:36:39.066Z,17.80
2023-05-04T10:39:18.010Z,18.40
2023-05-04T10:42:03.751Z,19.00
2023-05-04T10:44:51.019Z,18.80
2023-05-04T10:47:34.275Z,18.40
2023-05-04T10:50:14.580Z,18.60
2023-05-04T10:52:47.531Z,19.00
2023-05-04T10:55:15.466Z,18.90
2023-05-04T10:57:56.380Z,18.20
2023-05-04T11:00:35.434Z,18.20
2023-05-04T11:03:07.389Z,17.80
2023-05-04T11:05:50.842Z,17.90
2023-05-04T11:08:20.134Z,18.10
2023-05-04T11:10:48.487Z,18.70
2023-05-04T11:13:16.358Z,18.70
2023-05-04T11:15:47.726Z,18.30
2023-05-04T11:18:14.814Z,18.10
2023-05-04T11:20:42.874Z,17.80
2023-05-04T11:23:10.467Z,18.10
2023-05-04T11:25:37.714Z,18.50
2023-05-04T11:28:04.951Z,18.60
2023-05-04T11:30:35.730Z,18.50
2023-05-04T11:33:05.328Z,19.10
2023-05-04T11:35:32.417Z,19.50
2023-05-04T11:37:59.507Z,19.50
2023-05-04T11:40:27.383Z,19.20
2023-05-04T11:42:57.105Z,18.50
2023-05-04T11:45:29.540Z,18.70
2023-05-04T11:47:57.582Z,18.30
2023-05-04T11:50:26.907Z,17.80
2023-05-04T11:53:12.209Z,17.50
2023-05-04T11:55:39.408Z,17.50
2023-05-04T11:58:08.569Z,17.20
2023-05-04T12:00:39.909Z,17.50
2023-05-04T12:03:09.070Z,17.60
2023-05-04T12:05:37.031Z,17.10
2023-05-04T12:08:04.771Z,17.10
2023-05-04T12:10:35.232Z,16.90
2023-05-04T12:13:02.636Z,17.30
2023-05-04T12:15:36.568Z,17.10
2023-05-04T12:18:03.871Z,17.00
2023-05-04T12:20:30.963Z,17.10
2023-05-04T12:22:58.520Z,17.00
2023-05-04T12:25:25.655Z,17.00
2023-05-04T12:27:53.342Z,16.80
2023-05-04T12:30:20.289Z,16.40
2023-05-04T12:32:47.290Z,16.10
2023-05-04T12:35:14.290Z,16.30
2023-05-04T12:37:41.250Z,16.30
2023-05-04T12:40:21.058Z,16.20
2023-05-04T12:42:55.008Z,16.10
2023-05-04T12:45:22.644Z,16.10
2023-05-04T12:47:49.742Z,16.40
2023-05-04T12:50:16.722Z,16.30
2023-05-04T12:52:43.636Z,16.10
2023-05-04T12:55:10.675Z,16.30
2023-05-04T12:57:37.839Z,16.40
2023-05-04T13:00:08.552Z,16.40
2023-05-04T13:02:35.628Z,16.60
2023-05-04T13:05:02.569Z,16.10
2023-05-04T13:07:29.652Z,16.10
2023-05-04T13:09:56.828Z,16.00
2023-05-04T13:12:24.068Z,16.20
2023-05-04T13:14:55.362Z,16.00
2023-05-04T13:17:22.268Z,15.90
2023-05-04T13:19:49.374Z,15.40
2023-05-04T13:22:16.764Z,15.40
2023-05-04T13:24:43.673Z,15.40
2023-05-04T13:27:10.505Z,15.50
2023-05-04T13:29:37.939Z,15.60
2023-05-04T13:32:04.916Z,15.50
2023-05-04T13:34:31.806Z,15.40
2023-05-04T13:36:58.673Z,15.50
2023-05-04T13:39:25.872Z,15.70
2023-05-04T13:41:52.735Z,15.90
2023-05-04T13:44:19.691Z,15.90
2023-05-04T13:46:46.642Z,15.90
2023-05-04T13:49:13.540Z,15.70
2023-05-04T13:51:40.513Z,15.30
2023-05-04T13:54:07.409Z,15.40
2023-05-04T13:56:34.358Z,15.50
2023-05-04T13:59:01.334Z,15.70
2023-05-04T14:01:28.418Z,15.90
2023-05-04T14:03:55.398Z,15.90
2023-05-04T14:06:22.553Z,15.60
2023-05-04T14:08:49.385Z,15.30
2023-05-04T14:11:16.248Z,15.10
2023-05-04T14:13:43.184Z,14.80
2023-05-04T14:16:10.086Z,15.00
2023-05-04T14:18:36.990Z,15.10
2023-05-04T14:21:04.142Z,15.00
2023-05-04T14:23:31.007Z,15.10
2023-05-04T14:25:57.901Z,15.20
2023-05-04T14:28:24.807Z,15.20
2023-05-04T14:30:51.737Z,15.20
2023-05-04T14:33:18.646Z,15.00
2023-05-04T14:35:48.017Z,15.10
2023-05-04T14:38:15.645Z,15.00
2023-05-04T14:40:42.793Z,14.80
2023-05-04T14:43:09.786Z,14.70
2023-05-04T14:45:36.656Z,14.70
2023-05-04T14:48:03.641Z,14.60
2023-05-04T14:50:30.575Z,14.50
2023-05-04T14:52:57.447Z,14.60
2023-05-04T14:55:24.350Z,14.70
2023-05-04T14:57:51.717Z,14.60
2023-05-04T15:00:19.760Z,14.50
2023-05-04T15:02:46.800Z,14.10
2023-05-04T15:05:13.805Z,14.10
2023-05-04T15:07:40.737Z,14.10
2023-05-04T15:10:09.120Z,14.30
2023-05-04T15:12:37.754Z,14.30
2023-05-04T15:15:05.246Z,14.30
2023-05-04T15:17:32.210Z,14.50
2023-05-04T15:20:01.558Z,14.60
2023-05-04T15:22:28.745Z,14.50
2023-05-04T15:24:56.717Z,14.40
2023-05-04T15:27:23.639Z,14.20
2023-05-04T15:29:50.550Z,14.10
2023-05-04T15:32:17.385Z,14.20
2023-05-04T15:34:50.730Z,14.40
2023-05-04T15:37:27.764Z,14.10
2023-05-04T15:39:55.062Z,14.10
2023-05-04T15:42:22.244Z,14.00
2023-05-04T15:44:49.413Z,14.00
2023-05-04T15:47:16.895Z,14.10
2023-05-04T15:49:43.834Z,14.20
2023-05-04T15:52:10.858Z,14.10
2023-05-04T15:54:37.757Z,13.90
2023-05-04T15:57:04.713Z,13.80
2023-05-04T15:59:31.589Z,13.80
2023-05-04T16:01:58.486Z,13.80
2023-05-04T16:04:25.401Z,13.90
2023-05-04T16:06:52.249Z,14.00
2023-05-04T16:09:20.720Z,13.80
2023-05-04T16:11:47.670Z,13.90
2023-05-04T16:14:15.624Z,13.80
2023-05-04T16:16:42.649Z,13.90
2023-05-04T16:19:11.564Z,13.90
2023-05-04T16:21:38.921Z,13.70
2023-05-04T16:24:07.696Z,13.60
2023-05-04T16:26:34.598Z,13.70
2023-05-04T16:29:01.594Z,13.50
2023-05-04T16:31:28.528Z,13.50
2023-05-04T16:33:56.670Z,13.30
2023-05-04T16:36:23.581Z,13.20
2023-05-04T16:38:50.527Z,13.30
2023-05-04T16:41:20.252Z,13.30
2023-05-04T16:43:49.082Z,13.50
2023-05-04T16:46:17.019Z,13.20
2023-05-04T16:48:44.141Z,13.10
2023-05-04T16:51:11.043Z,13.10
2023-05-04T16:53:37.958Z,13.00
2023-05-04T16:56:05.256Z,13.10
2023-05-04T16:58:32.167Z,12.90
2023-05-04T17:00:59.016Z,13.00
2023-05-04T17:03:26.001Z,13.10
2023-05-04T17:05:53.688Z,13.10
2023-05-04T17:08:20.675Z,13.10
2023-05-04T17:10:47.561Z,13.10
2023-05-04T17:13:14.976Z,13.00
2023-05-04T17:15:42.011Z,12.80
2023-05-04T17:18:09.013Z,12.70
2023-05-04T17:20:36.034Z,12.70
2023-05-04T17:23:03.125Z,12.70
2023-05-04T17:25:30.205Z,12.70
2023-05-04T17:27:57.170Z,12.60
2023-05-04T17:30:24.240Z,12.60
2023-05-04T17:32:51.222Z,12.60
2023-05-04T17:35:25.188Z,12.50
2023-05-04T17:37:58.854Z,12.50
2023-05-04T17:40:27.806Z,12.40
2023-05-04T17:42:55.631Z,12.40
2023-05-04T17:45:22.663Z,12.30
2023-05-04T17:47:51.168Z,12.20
2023-05-04T17:50:18.197Z,12.40
2023-05-04T17:52:45.232Z,12.30
2023-05-04T17:55:12.227Z,12.20
2023-05-04T17:57:39.195Z,12.20
2023-05-04T18:00:07.452Z,12.20
2023-05-04T18:02:34.867Z,12.20
2023-05-04T18:05:02.442Z,12.10
2023-05-04T18:07:29.424Z,12.00
2023-05-04T18:09:56.443Z,11.90
2023-05-04T18:12:23.374Z,11.80
2023-05-04T18:14:51.069Z,11.80
2023-05-04T18:17:18.007Z,11.70
2023-05-04T18:19:44.854Z,11.80
2023-05-04T18:22:11.731Z,11.70
2023-05-04T18:24:38.634Z,11.60
2023-05-04T18:27:05.497Z,11.60
2023-05-04T18:29:32.555Z,11.50
2023-05-04T18:32:01.227Z,11.50
2023-05-04T18:34:28.266Z,11.30
2023-05-04T18:36:55.265Z,11.40
2023-05-04T18:39:22.392Z,11.30
2023-05-04T18:41:49.340Z,11.30
2023-05-04T18:44:16.515Z,11.20
2023-05-04T18:46:43.472Z,11.20
2023-05-04T18:49:10.500Z,11.10
2023-05-04T18:51:37.823Z,11.00
2023-05-04T18:54:04.799Z,11.00
2023-05-04T18:56:32.977Z,11.00
2023-05-04T18:58:59.965Z,10.90
2023-05-04T19:01:27.819Z,10.70
2023-05-04T19:03:54.910Z,10.70
2023-05-04T19:06:21.994Z,10.60
2023-05-04T19:08:49.462Z,10.60
2023-05-04T19:11:16.379Z,10.80
2023-05-04T19:13:43.569Z,10.70
2023-05-04T19:16:13.620Z,10.80
2023-05-04T19:18:40.661Z,10.70
2023-05-04T19:21:07.573Z,10.70
2023-05-04T19:23:34.661Z,10.60
2023-05-04T19:26:01.814Z,10.70
2023-05-04T19:28:28.643Z,10.60
2023-05-04T19:30:55.914Z,10.60
2023-05-04T19:33:24.643Z,10.70
2023-05-04T19:35:53.192Z,10.70
2023-05-04T19:38:20.076Z,10.70
2023-05-04T19:40:46.927Z,10.60
2023-05-04T19:43:13.845Z,10.70
2023-05-04T19:45:41.099Z,10.60
2023-05-04T19:48:08.181Z,10.60
2023-05-04T19:50:35.195Z,10.60
2023-05-04T19:53:02.068Z,10.60
2023-05-04T19:55:28.910Z,10.60
2023-05-04T19:57:56.150Z,10.60
2023-05-04T20:00:23.358Z,10.60
2023-05-04T20:02:50.720Z,10.50
2023-05-04T20:05:17.869Z,10.50
2023-05-04T20:07:44.827Z,10.50
2023-05-04T20:10:12.048Z,10.50
2023-05-04T20:12:39.044Z,10.40
2023-05-04T20:15:06.567Z,10.40
2023-05-04T20:17:33.533Z,10.50
2023-05-04T20:20:02.355Z,10.50
2023-05-04T20:22:29.366Z,10.50
2023-05-04T20:24:57.005Z,10.50
2023-05-04T20:27:23.973Z,10.50
2023-05-04T20:29:50.845Z,10.50
2023-05-04T20:32:17.753Z,10.60
2023-05-04T20:34:45.012Z,10.60
2023-05-04T20:37:11.927Z,10.50
2023-05-04T20:39:38.827Z,10.50
2023-05-04T20:42:05.819Z,10.50
2023-05-04T20:44:33.651Z,10.50
2023-05-04T20:47:00.564Z,10.50
2023-05-04T20:49:27.558Z,10.40
2023-05-04T20:51:54.535Z,10.50
2023-05-04T20:54:21.525Z,10.40
2023-05-04T20:56:48.426Z,10.40
2023-05-04T20:59:15.239Z,10.40
2023-05-04T21:01:42.158Z,10.30
2023-05-04T21:04:09.548Z,10.30
2023-05-04T21:06:36.361Z,10.40
2023-05-04T21:09:04.352Z,10.30
2023-05-04T21:11:31.210Z,10.30
2023-05-04T21:13:58.105Z,10.30
2023-05-04T21:16:25.442Z,10.30
2023-05-04T21:18:52.549Z,10.40
2023-05-04T21:21:19.398Z,10.40
2023-05-04T21:23:46.316Z,10.30
2023-05-04T21:26:13.158Z,10.30
2023-05-04T21:28:40.149Z,10.30
2023-05-04T21:31:08.270Z,10.20
2023-05-04T21:33:36.235Z,10.20
2023-05-04T21:36:16.257Z,10.20
2023-05-04T21:38:43.319Z,10.20
2023-05-04T21:41:12.022Z,10.10
2023-05-04T21:43:38.943Z,10.20
2023-05-04T21:46:08.782Z,10.30
2023-05-04T21:48:36.164Z,10.20
2023-05-04T21:51:03.104Z,10.10
2023-05-04T21:53:35.877Z,10.20
2023-05-04T21:56:10.149Z,10.20
2023-05-04T21:58:39.665Z,10.20
2023-05-04T22:01:14.665Z,10.20
2023-05-04T22:03:41.579Z,10.20
2023-05-04T22:06:08.764Z,10.20
2023-05-04T22:08:35.800Z,10.10
2023-05-04T22:11:02.907Z,10.10
2023-05-04T22:13:29.778Z,10.10
2023-05-04T22:15:56.637Z,10.20
2023-05-04T22:18:23.823Z,10.10
2023-05-04T22:20:50.879Z,10.10
2023-05-04T22:23:17.812Z,10.10
2023-05-04T22:25:44.759Z,10.10
2023-05-04T22:28:11.894Z,10.20
2023-05-04T22:30:39.347Z,10.10
2023-05-04T22:33:06.359Z,10.00
2023-05-04T22:35:33.370Z,10.00
2023-05-04T22:38:00.318Z,10.00
2023-05-04T22:40:27.413Z,10.00
2023-05-04T22:42:54.304Z,10.00
2023-05-04T22:45:21.291Z,10.00
2023-05-04T22:47:48.223Z,9.90
2023-05-04T22:50:15.229Z,10.00
2023-05-04T22:52:42.262Z,10.00
2023-05-04T22:55:09.591Z,9.90
2023-05-04T22:57:37.726Z,9.90
2023-05-04T23:00:07.710Z,9.90
2023-05-04T23:02:35.542Z,9.80
2023-05-04T23:05:02.517Z,9.80
2023-05-04T23:07:29.721Z,9.80
2023-05-04T23:09:56.713Z,9.80
2023-05-04T23:12:25.419Z,9.80
2023-05-04T23:14:52.538Z,9.80
2023-05-04T23:17:19.591Z,9.80
2023-05-04T23:19:46.462Z,9.80
2023-05-04T23:22:14.154Z,9.80
2023-05-04T23:24:41.169Z,9.70
2023-05-04T23:27:08.727Z,9.60
2023-05-04T23:29:35.653Z,9.60
2023-05-04T23:32:02.627Z,9.70
2023-05-04T23:34:29.631Z,9.70
2023-05-04T23:36:56.445Z,9.60
2023-05-04T23:39:23.288Z,9.60
2023-05-04T23:41:50.464Z,9.60
2023-05-04T23:44:17.304Z,9.50
2023-05-04T23:46:44.238Z,9.60
2023-05-04T23:49:11.887Z,9.50
2023-05-04T23:51:38.819Z,9.40
2023-05-04T23:54:05.778Z,9.50
2023-05-04T23:56:32.861Z,9.40
2023-05-04T23:59:00.054Z,9.40
